Haddon Heights, NJ (08035)

2:13 PM EDT on September 20, 2014 (GMT -0400)
Nicholson Rd | Change Station
CLOSE
Current Station
Personal Weather Station
Location: Audubon, NJ
Elevation: 56 ft
Nearby Weather Stations

Elev 56 ft 39.90 °N, 75.07 °W | Updated 1 second ago

Partly Cloudy
Partly Cloudy
77.7 °F
Feels Like 79 °F
N
1.0
Wind Variable Wind from SE
Gusts 6.0 mph

Today
High -- | Low -- °F
--% Chance of Precip.
Yesterday
High -- | Low -- °F
Precip. -- in
6:45 AM 7:00 PM
Waning Crescent, 11% visible
Pressure 30.19 in
Visibility 10.0 miles
Clouds Scattered Clouds 4500 ft
Heat Index 79 °F
Dew Point 62 °F
Humidity 58%
Rainfall 0.00 in
Snow Depth Not available.
UV 6 out of 12
Pollen 2.80 out of 12
Ozone Good
PM2.5 Good
Flu Activity Not available.
METAR KPHL 201754Z 20007KT 10SM SCT045 24/14 A3018 RMK AO2 SLP221 T02440144 10256 20161 58028

More Conditions Fewer Conditions

Pressure 30.19 in
Visibility 10.0 miles
Clouds Scattered Clouds 4500 ft
Heat Index 79 °F
Dew Point 62 °F
Humidity 58%
Rainfall 0.00 in
Snow Depth Not available.
UV 6 out of 12
Pollen 2.80 out of 12
Ozone Good
PM2.5 Good
Flu Activity Not available.
METAR KPHL 201754Z 20007KT 10SM SCT045 24/14 A3018 RMK AO2 SLP221 T02440144 10256 20161 58028

More Conditions Fewer Conditions

10-Day Weather Forecast

Almanac

Astronomy

Sep. 20, 2014 Rise Set
Actual Time 6:45 AM EDT 7:00 PM EDT
Civil Twilight 6:18 AM EDT 7:27 PM EDT
Nautical Twilight 5:47 AM EDT 7:59 PM EDT
Astronomical Twilight 5:14 AM EDT 8:31 PM EDT
Moon 3:23 AM EDT 5:02 PM EDT
Length of Visible Light 13h 08m
Length of Day
12h 14m
Tomorrow will be 2m 36s shorter.
Waning Crescent, 11% of the Moon is Illuminated
Today
Waning Crescent
Sep 24
New
Oct 1
First Quarter
Oct 8
Full
Oct 15
Last Quarter

Today's Extremes

State Highs State Lows

Community

WunderPhotos

Upload Photos

1,754,921 photos uploaded!

WunderBlogs® & News

Nearby

Air Quality

  Air Quality AQ Index Pollutant
Yesterday Good
PM2.5
Yesterday Good
OZONE
Current Good
PM2.5
Current Good
OZONE
Saturday Good
OZONE
Saturday Good
PM2.5
Sunday Good
OZONE
Sunday Good
PM2.5
Monday Good
OZONE
Monday Good
PM2.5

Snow Depth

Station Depth Elevation
No new snow has been reported.

Earthquake Activity

City Distance Mag. Time & Date
No recent earthquake activity has been reported nearby.
Minimum magnitude displayed is 2.5.

Coastal Water Temperatures

Place Temperature
Ship John Shoal, NJ 73.0 °F
Cape May, NJ 75.0 °F
Reedy Point, DE 73.0 °F
Delaware City, DE 73.9 °F
Marcus Hook, PA 73.9 °F

Nearby Weather Stations